KLGU

Logan-Cache Airport

Logan, Utah, USA
METAR KLGU 182140Z AUTO VRB05G19KT 10SM BKN085 29/11 A3016 RMK AO2 LTG DSNT E RAE01 P0000 T02890106
Observed Flight Rules
Aug-18 @ 21:40 UTC (13 minutes ago) Visual Flight Rules
Wind Visibility Clouds
Variable at 5 knots
 Gusting to 19 knots
10 miles
  • Broken at 8,500' AGL
Temperatures Readings Precipitation
Current 29°C / 84°F
Dewpoint 11°C / 52°F
Humidity 33%
Altimeter 30.16" Hg
Pressure 1021 hPa
Elevation 1355
Current Rain 0.005
METAR KLGU 182140Z AUTO VRB05G19KT 10SM BKN085 29/11 A3016 RMK AO2 LTG DSNT E RAE01 P0000 T02890106
Observed Flight Rules
Aug-18 @ 21:40 UTC
(13 minutes ago)
VFR
Wind Visibility
Variable at 5 knots
 Gusting to 19 knots
10 miles
Clouds
  • Broken at 8,500' AGL
Temperature Dewpoint
29°C / 84°F 11°C / 52°F
Humidity Altimeter Pressure
33% 30.16" Hg 1021 hPa
Current Rain
0.005